sensor_id;sensor_type;location;lat;lon;timestamp;P1;durP1;ratioP1;P2;durP2;ratioP2
801;SDS011;383;48.766;9.270;2023-05-02T00:00:59;13.73;;;8.63;;
801;SDS011;383;48.766;9.270;2023-05-02T00:03:29;17.73;;;8.45;;
801;SDS011;383;48.766;9.270;2023-05-02T00:05:56;13.32;;;7.47;;
801;SDS011;383;48.766;9.270;2023-05-02T00:08:22;11.95;;;7.15;;
801;SDS011;383;48.766;9.270;2023-05-02T00:10:49;10.98;;;6.78;;
801;SDS011;383;48.766;9.270;2023-05-02T00:13:16;12.52;;;7.13;;
801;SDS011;383;48.766;9.270;2023-05-02T00:15:44;12.18;;;7.57;;
801;SDS011;383;48.766;9.270;2023-05-02T00:18:10;14.10;;;7.70;;
801;SDS011;383;48.766;9.270;2023-05-02T00:20:38;17.30;;;7.68;;
801;SDS011;383;48.766;9.270;2023-05-02T00:23:05;13.05;;;7.00;;
801;SDS011;383;48.766;9.270;2023-05-02T00:25:31;10.70;;;7.57;;
801;SDS011;383;48.766;9.270;2023-05-02T00:27:58;12.50;;;7.47;;
801;SDS011;383;48.766;9.270;2023-05-02T00:30:25;11.52;;;7.90;;
801;SDS011;383;48.766;9.270;2023-05-02T00:32:53;12.65;;;7.13;;
801;SDS011;383;48.766;9.270;2023-05-02T00:35:19;13.70;;;7.85;;
801;SDS011;383;48.766;9.270;2023-05-02T00:37:46;11.98;;;7.07;;
801;SDS011;383;48.766;9.270;2023-05-02T00:40:13;15.57;;;8.35;;
801;SDS011;383;48.766;9.270;2023-05-02T00:42:40;14.60;;;7.68;;
801;SDS011;383;48.766;9.270;2023-05-02T00:45:07;12.70;;;7.40;;
801;SDS011;383;48.766;9.270;2023-05-02T00:47:34;12.32;;;7.35;;
801;SDS011;383;48.766;9.270;2023-05-02T00:50:02;15.52;;;8.40;;
801;SDS011;383;48.766;9.270;2023-05-02T00:52:29;11.25;;;7.30;;
801;SDS011;383;48.766;9.270;2023-05-02T00:54:56;11.10;;;7.10;;
801;SDS011;383;48.766;9.270;2023-05-02T00:57:23;13.10;;;7.20;;
801;SDS011;383;48.766;9.270;2023-05-02T00:59:50;12.23;;;7.28;;
801;SDS011;383;48.766;9.270;2023-05-02T01:02:22;12.23;;;7.63;;
801;SDS011;383;48.766;9.270;2023-05-02T01:04:59;17.02;;;7.63;;
801;SDS011;383;48.766;9.270;2023-05-02T01:07:40;24.63;;;7.90;;
801;SDS011;383;48.766;9.270;2023-05-02T01:10:18;14.98;;;8.07;;
801;SDS011;383;48.766;9.270;2023-05-02T01:12:57;15.63;;;8.45;;
801;SDS011;383;48.766;9.270;2023-05-02T01:15:28;15.57;;;7.68;;
801;SDS011;383;48.766;9.270;2023-05-02T01:17:57;11.73;;;7.53;;
801;SDS011;383;48.766;9.270;2023-05-02T01:20:28;11.07;;;6.80;;
801;SDS011;383;48.766;9.270;2023-05-02T01:22:59;12.27;;;7.80;;
801;SDS011;383;48.766;9.270;2023-05-02T01:25:39;13.75;;;7.80;;
801;SDS011;383;48.766;9.270;2023-05-02T01:28:26;13.38;;;8.05;;
801;SDS011;383;48.766;9.270;2023-05-02T01:31:01;10.50;;;6.70;;
801;SDS011;383;48.766;9.270;2023-05-02T01:33:29;14.85;;;7.85;;
801;SDS011;383;48.766;9.270;2023-05-02T01:35:56;11.10;;;7.25;;
801;SDS011;383;48.766;9.270;2023-05-02T01:38:26;13.52;;;7.47;;
801;SDS011;383;48.766;9.270;2023-05-02T01:40:54;11.98;;;7.65;;
801;SDS011;383;48.766;9.270;2023-05-02T01:43:27;11.55;;;7.60;;
801;SDS011;383;48.766;9.270;2023-05-02T01:45:57;9.38;;;7.10;;
801;SDS011;383;48.766;9.270;2023-05-02T01:48:28;13.75;;;7.78;;
801;SDS011;383;48.766;9.270;2023-05-02T01:50:56;14.38;;;8.00;;
801;SDS011;383;48.766;9.270;2023-05-02T01:53:23;13.32;;;7.47;;
801;SDS011;383;48.766;9.270;2023-05-02T01:55:51;16.15;;;7.85;;
801;SDS011;383;48.766;9.270;2023-05-02T01:58:19;19.42;;;8.25;;
801;SDS011;383;48.766;9.270;2023-05-02T02:00:47;20.98;;;9.30;;
801;SDS011;383;48.766;9.270;2023-05-02T02:03:16;11.95;;;7.20;;
801;SDS011;383;48.766;9.270;2023-05-02T02:05:44;11.35;;;7.80;;
801;SDS011;383;48.766;9.270;2023-05-02T02:08:14;13.52;;;7.32;;
801;SDS011;383;48.766;9.270;2023-05-02T02:10:42;13.68;;;6.97;;
801;SDS011;383;48.766;9.270;2023-05-02T02:13:12;10.25;;;7.50;;
801;SDS011;383;48.766;9.270;2023-05-02T02:15:43;12.95;;;7.90;;
801;SDS011;383;48.766;9.270;2023-05-02T02:18:13;13.38;;;7.70;;
801;SDS011;383;48.766;9.270;2023-05-02T02:20:46;12.32;;;8.15;;
801;SDS011;383;48.766;9.270;2023-05-02T02:23:15;11.57;;;7.18;;
801;SDS011;383;48.766;9.270;2023-05-02T02:25:45;15.60;;;8.80;;
801;SDS011;383;48.766;9.270;2023-05-02T02:28:13;10.65;;;7.32;;
801;SDS011;383;48.766;9.270;2023-05-02T02:30:40;16.88;;;7.97;;
801;SDS011;383;48.766;9.270;2023-05-02T02:33:07;10.82;;;7.90;;
801;SDS011;383;48.766;9.270;2023-05-02T02:35:36;12.82;;;6.88;;
801;SDS011;383;48.766;9.270;2023-05-02T02:38:08;12.27;;;7.30;;
801;SDS011;383;48.766;9.270;2023-05-02T02:40:43;12.27;;;7.25;;
801;SDS011;383;48.766;9.270;2023-05-02T02:43:18;12.70;;;8.82;;
801;SDS011;383;48.766;9.270;2023-05-02T02:45:53;13.18;;;7.55;;
801;SDS011;383;48.766;9.270;2023-05-02T02:48:24;16.42;;;7.88;;
801;SDS011;383;48.766;9.270;2023-05-02T02:51:02;11.93;;;8.00;;
801;SDS011;383;48.766;9.270;2023-05-02T02:53:39;19.30;;;8.00;;
801;SDS011;383;48.766;9.270;2023-05-02T02:56:14;17.55;;;8.48;;
801;SDS011;383;48.766;9.270;2023-05-02T02:58:45;14.10;;;8.18;;
801;SDS011;383;48.766;9.270;2023-05-02T03:01:16;13.52;;;7.88;;
801;SDS011;383;48.766;9.270;2023-05-02T03:03:45;14.10;;;8.63;;
801;SDS011;383;48.766;9.270;2023-05-02T03:06:14;14.60;;;7.65;;
801;SDS011;383;48.766;9.270;2023-05-02T03:08:42;13.05;;;8.10;;
801;SDS011;383;48.766;9.270;2023-05-02T03:11:09;14.27;;;7.40;;
801;SDS011;383;48.766;9.270;2023-05-02T03:13:36;14.57;;;8.52;;
801;SDS011;383;48.766;9.270;2023-05-02T03:18:54;13.18;;;8.10;;
801;SDS011;383;48.766;9.270;2023-05-02T03:21:22;14.13;;;7.63;;
801;SDS011;383;48.766;9.270;2023-05-02T03:23:49;14.27;;;8.10;;
801;SDS011;383;48.766;9.270;2023-05-02T03:26:16;13.98;;;8.88;;
801;SDS011;383;48.766;9.270;2023-05-02T03:28:42;14.45;;;8.57;;
801;SDS011;383;48.766;9.270;2023-05-02T03:31:10;18.02;;;9.90;;
801;SDS011;383;48.766;9.270;2023-05-02T03:33:37;18.33;;;10.60;;
801;SDS011;383;48.766;9.270;2023-05-02T03:36:04;14.77;;;9.15;;
801;SDS011;383;48.766;9.270;2023-05-02T03:38:33;17.52;;;10.00;;
801;SDS011;383;48.766;9.270;2023-05-02T03:41:00;17.05;;;10.57;;
801;SDS011;383;48.766;9.270;2023-05-02T03:43:27;17.80;;;9.95;;
801;SDS011;383;48.766;9.270;2023-05-02T03:45:53;15.90;;;9.25;;
801;SDS011;383;48.766;9.270;2023-05-02T03:48:20;18.35;;;9.93;;
801;SDS011;383;48.766;9.270;2023-05-02T03:50:47;14.73;;;9.35;;
801;SDS011;383;48.766;9.270;2023-05-02T03:53:15;19.80;;;9.15;;
801;SDS011;383;48.766;9.270;2023-05-02T03:55:43;12.88;;;8.85;;
801;SDS011;383;48.766;9.270;2023-05-02T03:58:09;14.32;;;8.40;;
801;SDS011;383;48.766;9.270;2023-05-02T04:00:36;14.27;;;8.32;;
801;SDS011;383;48.766;9.270;2023-05-02T04:03:03;18.35;;;10.45;;
801;SDS011;383;48.766;9.270;2023-05-02T04:05:31;17.05;;;9.70;;
801;SDS011;383;48.766;9.270;2023-05-02T04:07:57;14.75;;;8.73;;
801;SDS011;383;48.766;9.270;2023-05-02T04:10:24;16.40;;;9.13;;
801;SDS011;383;48.766;9.270;2023-05-02T04:12:52;19.00;;;11.00;;
801;SDS011;383;48.766;9.270;2023-05-02T04:15:19;15.43;;;9.07;;
801;SDS011;383;48.766;9.270;2023-05-02T04:17:46;17.30;;;8.85;;
801;SDS011;383;48.766;9.270;2023-05-02T04:20:12;15.55;;;9.13;;
801;SDS011;383;48.766;9.270;2023-05-02T04:22:39;15.75;;;9.40;;
801;SDS011;383;48.766;9.270;2023-05-02T04:25:06;15.40;;;9.32;;
801;SDS011;383;48.766;9.270;2023-05-02T04:27:33;14.30;;;9.63;;
801;SDS011;383;48.766;9.270;2023-05-02T04:30:01;22.00;;;10.20;;
801;SDS011;383;48.766;9.270;2023-05-02T04:32:28;15.95;;;9.82;;
801;SDS011;383;48.766;9.270;2023-05-02T04:34:55;17.83;;;8.85;;
801;SDS011;383;48.766;9.270;2023-05-02T04:37:22;14.50;;;9.40;;
801;SDS011;383;48.766;9.270;2023-05-02T04:39:48;18.83;;;9.77;;
801;SDS011;383;48.766;9.270;2023-05-02T04:42:17;16.88;;;9.95;;
801;SDS011;383;48.766;9.270;2023-05-02T04:44:44;17.17;;;11.07;;
801;SDS011;383;48.766;9.270;2023-05-02T04:47:13;18.05;;;11.02;;
801;SDS011;383;48.766;9.270;2023-05-02T04:49:39;17.17;;;10.15;;
801;SDS011;383;48.766;9.270;2023-05-02T04:52:10;17.05;;;10.02;;
801;SDS011;383;48.766;9.270;2023-05-02T04:54:37;19.63;;;11.10;;
801;SDS011;383;48.766;9.270;2023-05-02T04:57:04;19.70;;;11.60;;
801;SDS011;383;48.766;9.270;2023-05-02T04:59:32;21.52;;;11.50;;
801;SDS011;383;48.766;9.270;2023-05-02T05:01:59;21.00;;;11.80;;
801;SDS011;383;48.766;9.270;2023-05-02T05:04:27;16.30;;;10.70;;
801;SDS011;383;48.766;9.270;2023-05-02T05:06:54;16.85;;;11.10;;
801;SDS011;383;48.766;9.270;2023-05-02T05:09:21;16.55;;;10.55;;
801;SDS011;383;48.766;9.270;2023-05-02T05:11:47;16.77;;;10.05;;
801;SDS011;383;48.766;9.270;2023-05-02T05:14:14;21.23;;;11.10;;
801;SDS011;383;48.766;9.270;2023-05-02T05:16:41;19.38;;;10.45;;
801;SDS011;383;48.766;9.270;2023-05-02T05:19:08;18.02;;;10.77;;
801;SDS011;383;48.766;9.270;2023-05-02T05:21:36;15.43;;;10.07;;
801;SDS011;383;48.766;9.270;2023-05-02T05:24:03;14.48;;;9.38;;
801;SDS011;383;48.766;9.270;2023-05-02T05:26:30;14.63;;;9.45;;
801;SDS011;383;48.766;9.270;2023-05-02T05:28:57;16.48;;;9.45;;
801;SDS011;383;48.766;9.270;2023-05-02T05:31:23;18.77;;;10.38;;
801;SDS011;383;48.766;9.270;2023-05-02T05:33:50;15.65;;;10.30;;
801;SDS011;383;48.766;9.270;2023-05-02T05:36:17;14.65;;;9.45;;
801;SDS011;383;48.766;9.270;2023-05-02T05:38:45;17.13;;;9.85;;
801;SDS011;383;48.766;9.270;2023-05-02T05:41:12;15.68;;;9.60;;
801;SDS011;383;48.766;9.270;2023-05-02T05:43:39;12.55;;;9.18;;
801;SDS011;383;48.766;9.270;2023-05-02T05:46:05;22.10;;;9.93;;
801;SDS011;383;48.766;9.270;2023-05-02T05:48:32;16.83;;;9.93;;
801;SDS011;383;48.766;9.270;2023-05-02T05:51:02;16.42;;;9.68;;
801;SDS011;383;48.766;9.270;2023-05-02T05:53:29;13.13;;;8.73;;
801;SDS011;383;48.766;9.270;2023-05-02T05:55:57;13.93;;;9.40;;
801;SDS011;383;48.766;9.270;2023-05-02T05:58:24;20.25;;;10.15;;
801;SDS011;383;48.766;9.270;2023-05-02T06:00:51;12.90;;;8.85;;
801;SDS011;383;48.766;9.270;2023-05-02T06:03:18;16.17;;;9.73;;
801;SDS011;383;48.766;9.270;2023-05-02T06:05:45;14.85;;;10.18;;
801;SDS011;383;48.766;9.270;2023-05-02T06:08:12;17.27;;;10.25;;
801;SDS011;383;48.766;9.270;2023-05-02T06:10:39;14.93;;;9.40;;
801;SDS011;383;48.766;9.270;2023-05-02T06:13:07;15.83;;;9.57;;
801;SDS011;383;48.766;9.270;2023-05-02T06:15:34;15.18;;;9.38;;
801;SDS011;383;48.766;9.270;2023-05-02T06:18:01;15.00;;;9.77;;
801;SDS011;383;48.766;9.270;2023-05-02T06:20:27;20.45;;;11.43;;
801;SDS011;383;48.766;9.270;2023-05-02T06:22:54;16.83;;;9.23;;
801;SDS011;383;48.766;9.270;2023-05-02T06:25:21;11.97;;;8.80;;
801;SDS011;383;48.766;9.270;2023-05-02T06:27:52;15.70;;;9.70;;
801;SDS011;383;48.766;9.270;2023-05-02T06:30:20;13.90;;;8.70;;
801;SDS011;383;48.766;9.270;2023-05-02T06:32:49;14.83;;;9.43;;
801;SDS011;383;48.766;9.270;2023-05-02T06:35:16;11.63;;;8.47;;
801;SDS011;383;48.766;9.270;2023-05-02T06:37:43;14.90;;;9.17;;
801;SDS011;383;48.766;9.270;2023-05-02T06:40:10;14.93;;;9.60;;
801;SDS011;383;48.766;9.270;2023-05-02T06:42:37;17.20;;;9.37;;
801;SDS011;383;48.766;9.270;2023-05-02T06:45:04;15.70;;;9.53;;
801;SDS011;383;48.766;9.270;2023-05-02T06:47:33;21.23;;;10.50;;
801;SDS011;383;48.766;9.270;2023-05-02T06:50:00;13.10;;;9.00;;
801;SDS011;383;48.766;9.270;2023-05-02T06:52:27;18.73;;;11.37;;
801;SDS011;383;48.766;9.270;2023-05-02T06:54:55;17.37;;;9.70;;
801;SDS011;383;48.766;9.270;2023-05-02T06:57:21;22.10;;;12.33;;
801;SDS011;383;48.766;9.270;2023-05-02T06:59:49;19.43;;;11.53;;
801;SDS011;383;48.766;9.270;2023-05-02T07:02:16;20.63;;;11.50;;
801;SDS011;383;48.766;9.270;2023-05-02T07:04:44;15.33;;;10.30;;
801;SDS011;383;48.766;9.270;2023-05-02T07:07:10;25.47;;;12.03;;
801;SDS011;383;48.766;9.270;2023-05-02T07:09:37;18.60;;;12.90;;
801;SDS011;383;48.766;9.270;2023-05-02T07:12:04;18.40;;;11.67;;
801;SDS011;383;48.766;9.270;2023-05-02T07:14:31;20.07;;;13.20;;
801;SDS011;383;48.766;9.270;2023-05-02T07:16:57;25.23;;;12.50;;
801;SDS011;383;48.766;9.270;2023-05-02T07:19:24;21.37;;;13.50;;
801;SDS011;383;48.766;9.270;2023-05-02T07:21:52;18.37;;;12.07;;
801;SDS011;383;48.766;9.270;2023-05-02T07:24:19;20.50;;;13.00;;
801;SDS011;383;48.766;9.270;2023-05-02T07:26:45;18.70;;;11.37;;
801;SDS011;383;48.766;9.270;2023-05-02T07:29:19;23.77;;;14.63;;
801;SDS011;383;48.766;9.270;2023-05-02T07:31:46;19.60;;;12.97;;
801;SDS011;383;48.766;9.270;2023-05-02T07:34:12;21.10;;;13.37;;
801;SDS011;383;48.766;9.270;2023-05-02T07:36:42;22.80;;;14.37;;
801;SDS011;383;48.766;9.270;2023-05-02T07:39:10;23.83;;;13.73;;
801;SDS011;383;48.766;9.270;2023-05-02T07:41:37;27.07;;;13.87;;
801;SDS011;383;48.766;9.270;2023-05-02T07:44:03;27.60;;;15.70;;
801;SDS011;383;48.766;9.270;2023-05-02T07:46:30;27.70;;;15.23;;
801;SDS011;383;48.766;9.270;2023-05-02T07:48:57;22.37;;;13.80;;
801;SDS011;383;48.766;9.270;2023-05-02T07:51:24;28.43;;;15.53;;
801;SDS011;383;48.766;9.270;2023-05-02T07:53:51;25.63;;;15.67;;
801;SDS011;383;48.766;9.270;2023-05-02T07:56:21;26.93;;;15.83;;
801;SDS011;383;48.766;9.270;2023-05-02T07:58:47;31.47;;;15.90;;
801;SDS011;383;48.766;9.270;2023-05-02T08:01:15;26.90;;;16.63;;
801;SDS011;383;48.766;9.270;2023-05-02T08:03:42;29.43;;;16.03;;
801;SDS011;383;48.766;9.270;2023-05-02T08:06:09;25.80;;;15.63;;
801;SDS011;383;48.766;9.270;2023-05-02T08:08:37;26.90;;;17.13;;
801;SDS011;383;48.766;9.270;2023-05-02T08:11:04;30.73;;;15.63;;
801;SDS011;383;48.766;9.270;2023-05-02T08:13:32;24.90;;;17.07;;
801;SDS011;383;48.766;9.270;2023-05-02T08:15:58;29.93;;;15.47;;
801;SDS011;383;48.766;9.270;2023-05-02T08:18:26;35.57;;;17.13;;
801;SDS011;383;48.766;9.270;2023-05-02T08:20:54;26.10;;;16.10;;
801;SDS011;383;48.766;9.270;2023-05-02T08:23:22;28.53;;;17.73;;
801;SDS011;383;48.766;9.270;2023-05-02T08:25:49;26.37;;;16.53;;
801;SDS011;383;48.766;9.270;2023-05-02T08:28:15;32.70;;;17.83;;
801;SDS011;383;48.766;9.270;2023-05-02T08:30:44;29.43;;;15.57;;
801;SDS011;383;48.766;9.270;2023-05-02T08:33:11;33.93;;;19.87;;
801;SDS011;383;48.766;9.270;2023-05-02T08:35:38;35.43;;;19.03;;
801;SDS011;383;48.766;9.270;2023-05-02T08:38:05;31.53;;;18.27;;
801;SDS011;383;48.766;9.270;2023-05-02T08:40:32;33.33;;;18.57;;
801;SDS011;383;48.766;9.270;2023-05-02T08:43:01;29.43;;;18.90;;
801;SDS011;383;48.766;9.270;2023-05-02T08:45:28;29.63;;;18.23;;
801;SDS011;383;48.766;9.270;2023-05-02T08:48:03;26.97;;;17.50;;
801;SDS011;383;48.766;9.270;2023-05-02T08:50:32;27.80;;;17.13;;
801;SDS011;383;48.766;9.270;2023-05-02T08:53:02;33.87;;;18.70;;
801;SDS011;383;48.766;9.270;2023-05-02T08:55:30;35.80;;;21.13;;
801;SDS011;383;48.766;9.270;2023-05-02T08:57:57;35.20;;;19.60;;
801;SDS011;383;48.766;9.270;2023-05-02T09:00:25;35.23;;;20.53;;
801;SDS011;383;48.766;9.270;2023-05-02T09:02:58;32.73;;;19.67;;
801;SDS011;383;48.766;9.270;2023-05-02T09:05:32;33.90;;;21.03;;
801;SDS011;383;48.766;9.270;2023-05-02T09:08:05;38.60;;;21.13;;
801;SDS011;383;48.766;9.270;2023-05-02T09:10:33;34.60;;;21.00;;
801;SDS011;383;48.766;9.270;2023-05-02T09:15:56;36.73;;;20.23;;
801;SDS011;383;48.766;9.270;2023-05-02T09:18:27;39.90;;;18.87;;
801;SDS011;383;48.766;9.270;2023-05-02T09:20:56;31.43;;;18.93;;
801;SDS011;383;48.766;9.270;2023-05-02T09:26:16;34.33;;;20.13;;
801;SDS011;383;48.766;9.270;2023-05-02T09:28:44;33.00;;;18.90;;
801;SDS011;383;48.766;9.270;2023-05-02T09:31:12;32.40;;;19.60;;
801;SDS011;383;48.766;9.270;2023-05-02T09:33:42;32.23;;;18.43;;
801;SDS011;383;48.766;9.270;2023-05-02T09:36:10;32.67;;;18.70;;
801;SDS011;383;48.766;9.270;2023-05-02T09:38:39;38.43;;;21.00;;
801;SDS011;383;48.766;9.270;2023-05-02T09:41:07;33.27;;;20.20;;
801;SDS011;383;48.766;9.270;2023-05-02T09:43:33;32.80;;;19.97;;
801;SDS011;383;48.766;9.270;2023-05-02T09:46:01;29.87;;;18.60;;
801;SDS011;383;48.766;9.270;2023-05-02T09:48:29;28.00;;;17.77;;
801;SDS011;383;48.766;9.270;2023-05-02T09:50:58;33.20;;;19.07;;
801;SDS011;383;48.766;9.270;2023-05-02T09:53:25;29.40;;;18.50;;
801;SDS011;383;48.766;9.270;2023-05-02T09:55:59;33.37;;;18.57;;
801;SDS011;383;48.766;9.270;2023-05-02T09:58:27;27.50;;;16.80;;
801;SDS011;383;48.766;9.270;2023-05-02T10:00:56;26.97;;;17.50;;
801;SDS011;383;48.766;9.270;2023-05-02T10:03:23;32.10;;;18.90;;
801;SDS011;383;48.766;9.270;2023-05-02T10:05:51;28.40;;;17.80;;
801;SDS011;383;48.766;9.270;2023-05-02T10:08:20;35.10;;;18.50;;
801;SDS011;383;48.766;9.270;2023-05-02T10:10:51;28.97;;;16.83;;
801;SDS011;383;48.766;9.270;2023-05-02T10:13:20;29.97;;;18.20;;
801;SDS011;383;48.766;9.270;2023-05-02T10:15:49;46.63;;;19.27;;
801;SDS011;383;48.766;9.270;2023-05-02T10:18:20;32.80;;;18.03;;
801;SDS011;383;48.766;9.270;2023-05-02T10:20:55;36.67;;;18.30;;
801;SDS011;383;48.766;9.270;2023-05-02T10:23:28;31.07;;;19.10;;
801;SDS011;383;48.766;9.270;2023-05-02T10:25:56;28.73;;;18.33;;
801;SDS011;383;48.766;9.270;2023-05-02T10:28:25;29.30;;;18.20;;
801;SDS011;383;48.766;9.270;2023-05-02T10:30:52;36.47;;;18.23;;
801;SDS011;383;48.766;9.270;2023-05-02T10:33:20;27.50;;;17.73;;
801;SDS011;383;48.766;9.270;2023-05-02T10:35:47;31.03;;;19.03;;
801;SDS011;383;48.766;9.270;2023-05-02T10:38:15;25.83;;;16.70;;
801;SDS011;383;48.766;9.270;2023-05-02T10:40:50;31.43;;;18.87;;
801;SDS011;383;48.766;9.270;2023-05-02T10:43:21;32.17;;;18.53;;
801;SDS011;383;48.766;9.270;2023-05-02T10:45:50;30.37;;;19.33;;
801;SDS011;383;48.766;9.270;2023-05-02T10:48:18;30.93;;;19.47;;
801;SDS011;383;48.766;9.270;2023-05-02T10:50:47;32.17;;;20.07;;
801;SDS011;383;48.766;9.270;2023-05-02T10:53:28;35.83;;;19.10;;
801;SDS011;383;48.766;9.270;2023-05-02T10:56:16;32.97;;;17.77;;
801;SDS011;383;48.766;9.270;2023-05-02T10:58:46;28.40;;;17.03;;
801;SDS011;383;48.766;9.270;2023-05-02T11:01:32;29.73;;;18.70;;
801;SDS011;383;48.766;9.270;2023-05-02T11:04:02;34.43;;;20.00;;
801;SDS011;383;48.766;9.270;2023-05-02T11:06:30;33.63;;;18.63;;
801;SDS011;383;48.766;9.270;2023-05-02T11:11:59;26.60;;;15.90;;
801;SDS011;383;48.766;9.270;2023-05-02T11:17:16;28.27;;;17.40;;
801;SDS011;383;48.766;9.270;2023-05-02T11:22:55;34.30;;;20.53;;
801;SDS011;383;48.766;9.270;2023-05-02T11:25:39;27.20;;;16.80;;
801;SDS011;383;48.766;9.270;2023-05-02T11:28:37;23.57;;;14.63;;
801;SDS011;383;48.766;9.270;2023-05-02T11:31:06;21.77;;;12.57;;
801;SDS011;383;48.766;9.270;2023-05-02T11:33:33;24.27;;;14.53;;
801;SDS011;383;48.766;9.270;2023-05-02T11:36:00;24.13;;;14.97;;
801;SDS011;383;48.766;9.270;2023-05-02T11:38:34;22.00;;;14.40;;
801;SDS011;383;48.766;9.270;2023-05-02T11:41:02;23.13;;;14.13;;
801;SDS011;383;48.766;9.270;2023-05-02T11:43:30;26.57;;;15.50;;
801;SDS011;383;48.766;9.270;2023-05-02T11:45:57;24.00;;;16.30;;
801;SDS011;383;48.766;9.270;2023-05-02T11:48:25;28.93;;;14.77;;
801;SDS011;383;48.766;9.270;2023-05-02T11:50:53;28.10;;;15.60;;
801;SDS011;383;48.766;9.270;2023-05-02T11:53:22;26.60;;;16.20;;
801;SDS011;383;48.766;9.270;2023-05-02T11:55:50;23.90;;;14.57;;
801;SDS011;383;48.766;9.270;2023-05-02T11:58:20;19.37;;;12.93;;
801;SDS011;383;48.766;9.270;2023-05-02T12:00:50;23.60;;;14.23;;
801;SDS011;383;48.766;9.270;2023-05-02T12:03:21;20.90;;;14.20;;
801;SDS011;383;48.766;9.270;2023-05-02T12:06:07;24.70;;;14.80;;
801;SDS011;383;48.766;9.270;2023-05-02T12:08:34;29.10;;;17.33;;
801;SDS011;383;48.766;9.270;2023-05-02T12:11:01;27.07;;;16.60;;
801;SDS011;383;48.766;9.270;2023-05-02T12:13:28;22.93;;;14.80;;
801;SDS011;383;48.766;9.270;2023-05-02T12:15:56;27.07;;;17.20;;
801;SDS011;383;48.766;9.270;2023-05-02T12:18:24;22.77;;;15.00;;
801;SDS011;383;48.766;9.270;2023-05-02T12:20:52;30.13;;;16.93;;
801;SDS011;383;48.766;9.270;2023-05-02T12:23:22;23.90;;;16.27;;
801;SDS011;383;48.766;9.270;2023-05-02T12:25:50;28.90;;;18.00;;
801;SDS011;383;48.766;9.270;2023-05-02T12:28:17;26.43;;;14.97;;
801;SDS011;383;48.766;9.270;2023-05-02T12:30:46;27.00;;;17.40;;
801;SDS011;383;48.766;9.270;2023-05-02T12:33:15;25.60;;;14.77;;
801;SDS011;383;48.766;9.270;2023-05-02T12:35:43;30.97;;;17.30;;
801;SDS011;383;48.766;9.270;2023-05-02T12:38:12;29.60;;;17.17;;
801;SDS011;383;48.766;9.270;2023-05-02T12:40:45;30.67;;;17.70;;
801;SDS011;383;48.766;9.270;2023-05-02T12:43:17;25.83;;;17.03;;
801;SDS011;383;48.766;9.270;2023-05-02T12:45:44;26.57;;;15.10;;
801;SDS011;383;48.766;9.270;2023-05-02T12:48:20;27.70;;;16.60;;
801;SDS011;383;48.766;9.270;2023-05-02T12:50:49;32.87;;;17.50;;
801;SDS011;383;48.766;9.270;2023-05-02T12:53:16;26.50;;;16.47;;
801;SDS011;383;48.766;9.270;2023-05-02T12:55:43;31.23;;;19.00;;
801;SDS011;383;48.766;9.270;2023-05-02T12:58:10;30.93;;;18.17;;
801;SDS011;383;48.766;9.270;2023-05-02T13:00:39;31.47;;;17.00;;
801;SDS011;383;48.766;9.270;2023-05-02T13:03:07;28.43;;;16.50;;
801;SDS011;383;48.766;9.270;2023-05-02T13:05:36;35.53;;;18.97;;
801;SDS011;383;48.766;9.270;2023-05-02T13:08:03;33.10;;;17.10;;
801;SDS011;383;48.766;9.270;2023-05-02T13:10:30;32.77;;;18.13;;
801;SDS011;383;48.766;9.270;2023-05-02T13:12:57;33.10;;;17.53;;
801;SDS011;383;48.766;9.270;2023-05-02T13:15:23;28.10;;;16.30;;
801;SDS011;383;48.766;9.270;2023-05-02T13:17:50;31.70;;;15.70;;
801;SDS011;383;48.766;9.270;2023-05-02T13:20:17;28.37;;;16.43;;
801;SDS011;383;48.766;9.270;2023-05-02T13:22:45;30.67;;;18.03;;
801;SDS011;383;48.766;9.270;2023-05-02T13:25:12;28.90;;;17.27;;
801;SDS011;383;48.766;9.270;2023-05-02T13:27:39;33.50;;;18.70;;
801;SDS011;383;48.766;9.270;2023-05-02T13:30:07;28.97;;;17.87;;
801;SDS011;383;48.766;9.270;2023-05-02T13:32:35;34.70;;;18.10;;
801;SDS011;383;48.766;9.270;2023-05-02T13:35:02;29.90;;;18.33;;
801;SDS011;383;48.766;9.270;2023-05-02T13:37:30;32.57;;;16.67;;
801;SDS011;383;48.766;9.270;2023-05-02T13:39:58;31.17;;;19.17;;
801;SDS011;383;48.766;9.270;2023-05-02T13:42:24;31.27;;;17.50;;
801;SDS011;383;48.766;9.270;2023-05-02T13:44:51;27.13;;;16.27;;
801;SDS011;383;48.766;9.270;2023-05-02T13:47:17;33.40;;;15.90;;
801;SDS011;383;48.766;9.270;2023-05-02T13:49:45;26.27;;;16.07;;
801;SDS011;383;48.766;9.270;2023-05-02T13:52:12;22.20;;;14.03;;
801;SDS011;383;48.766;9.270;2023-05-02T13:54:39;35.47;;;16.03;;
801;SDS011;383;48.766;9.270;2023-05-02T13:57:07;23.77;;;15.33;;
801;SDS011;383;48.766;9.270;2023-05-02T13:59:33;27.00;;;14.90;;
801;SDS011;383;48.766;9.270;2023-05-02T14:02:00;25.43;;;14.43;;
801;SDS011;383;48.766;9.270;2023-05-02T14:04:27;22.47;;;13.43;;
801;SDS011;383;48.766;9.270;2023-05-02T14:06:53;25.20;;;13.90;;
801;SDS011;383;48.766;9.270;2023-05-02T14:09:20;25.23;;;14.10;;
801;SDS011;383;48.766;9.270;2023-05-02T14:11:47;25.77;;;13.80;;
801;SDS011;383;48.766;9.270;2023-05-02T14:14:15;24.43;;;13.87;;
801;SDS011;383;48.766;9.270;2023-05-02T14:16:41;29.13;;;14.27;;
801;SDS011;383;48.766;9.270;2023-05-02T14:19:08;25.63;;;15.57;;
801;SDS011;383;48.766;9.270;2023-05-02T14:21:35;25.80;;;13.73;;
801;SDS011;383;48.766;9.270;2023-05-02T14:24:02;27.70;;;14.53;;
801;SDS011;383;48.766;9.270;2023-05-02T14:26:30;27.50;;;14.67;;
801;SDS011;383;48.766;9.270;2023-05-02T14:28:57;23.87;;;13.50;;
801;SDS011;383;48.766;9.270;2023-05-02T14:31:26;22.33;;;13.03;;
801;SDS011;383;48.766;9.270;2023-05-02T14:33:52;20.00;;;12.00;;
801;SDS011;383;48.766;9.270;2023-05-02T14:36:19;20.10;;;12.10;;
801;SDS011;383;48.766;9.270;2023-05-02T14:38:46;23.67;;;12.27;;
801;SDS011;383;48.766;9.270;2023-05-02T14:41:12;21.10;;;12.40;;
801;SDS011;383;48.766;9.270;2023-05-02T14:43:39;23.00;;;12.40;;
801;SDS011;383;48.766;9.270;2023-05-02T14:46:06;17.67;;;10.70;;
801;SDS011;383;48.766;9.270;2023-05-02T14:48:34;22.60;;;11.83;;
801;SDS011;383;48.766;9.270;2023-05-02T14:51:02;21.47;;;11.90;;
801;SDS011;383;48.766;9.270;2023-05-02T14:53:29;17.47;;;9.40;;
801;SDS011;383;48.766;9.270;2023-05-02T14:55:55;13.90;;;8.53;;
801;SDS011;383;48.766;9.270;2023-05-02T14:58:22;15.97;;;8.93;;
801;SDS011;383;48.766;9.270;2023-05-02T15:00:49;14.40;;;7.60;;
801;SDS011;383;48.766;9.270;2023-05-02T15:03:16;10.17;;;7.03;;
801;SDS011;383;48.766;9.270;2023-05-02T15:05:44;14.63;;;8.30;;
801;SDS011;383;48.766;9.270;2023-05-02T15:08:11;15.90;;;8.90;;
801;SDS011;383;48.766;9.270;2023-05-02T15:10:37;13.50;;;8.97;;
801;SDS011;383;48.766;9.270;2023-05-02T15:13:04;14.60;;;7.60;;
801;SDS011;383;48.766;9.270;2023-05-02T15:15:32;12.60;;;6.57;;
801;SDS011;383;48.766;9.270;2023-05-02T15:17:59;14.50;;;6.70;;
801;SDS011;383;48.766;9.270;2023-05-02T15:20:26;13.87;;;7.73;;
801;SDS011;383;48.766;9.270;2023-05-02T15:22:54;13.27;;;8.00;;
801;SDS011;383;48.766;9.270;2023-05-02T15:25:22;15.33;;;7.97;;
801;SDS011;383;48.766;9.270;2023-05-02T15:27:49;15.07;;;8.70;;
801;SDS011;383;48.766;9.270;2023-05-02T15:30:16;16.93;;;8.87;;
801;SDS011;383;48.766;9.270;2023-05-02T15:32:43;12.10;;;7.60;;
801;SDS011;383;48.766;9.270;2023-05-02T15:35:10;11.90;;;7.67;;
801;SDS011;383;48.766;9.270;2023-05-02T15:37:36;12.10;;;6.00;;
801;SDS011;383;48.766;9.270;2023-05-02T15:40:05;11.10;;;6.30;;
801;SDS011;383;48.766;9.270;2023-05-02T15:42:33;15.67;;;6.67;;
801;SDS011;383;48.766;9.270;2023-05-02T15:45:01;12.20;;;6.83;;
801;SDS011;383;48.766;9.270;2023-05-02T15:47:28;13.13;;;6.80;;